sensor_id;sensor_type;location;lat;lon;timestamp;temperature;humidity
53146;DHT22;39042;53.150;5.898;2023-08-08T00:01:23;14.20;99.90
53146;DHT22;39042;53.150;5.898;2023-08-08T00:03:49;14.20;99.90
53146;DHT22;39042;53.150;5.898;2023-08-08T00:06:15;14.20;99.90
53146;DHT22;39042;53.150;5.898;2023-08-08T00:08:41;14.20;99.90
53146;DHT22;39042;53.150;5.898;2023-08-08T00:11:07;14.20;99.90
53146;DHT22;39042;53.150;5.898;2023-08-08T00:13:32;14.10;99.90
53146;DHT22;39042;53.150;5.898;2023-08-08T00:15:58;14.10;99.90
53146;DHT22;39042;53.150;5.898;2023-08-08T00:18:24;14.10;99.90
53146;DHT22;39042;53.150;5.898;2023-08-08T00:20:50;14.00;99.90
53146;DHT22;39042;53.150;5.898;2023-08-08T00:23:16;14.00;99.90
53146;DHT22;39042;53.150;5.898;2023-08-08T00:25:42;13.90;99.90
53146;DHT22;39042;53.150;5.898;2023-08-08T00:28:07;13.80;99.90
53146;DHT22;39042;53.150;5.898;2023-08-08T00:30:33;13.80;99.90
53146;DHT22;39042;53.150;5.898;2023-08-08T00:32:59;13.70;99.90
53146;DHT22;39042;53.150;5.898;2023-08-08T00:35:25;13.70;99.90
53146;DHT22;39042;53.150;5.898;2023-08-08T00:37:51;13.70;99.90
53146;DHT22;39042;53.150;5.898;2023-08-08T00:40:18;13.60;99.90
53146;DHT22;39042;53.150;5.898;2023-08-08T00:42:43;13.50;99.90
53146;DHT22;39042;53.150;5.898;2023-08-08T00:45:09;13.50;99.90
53146;DHT22;39042;53.150;5.898;2023-08-08T00:47:35;13.40;99.90
53146;DHT22;39042;53.150;5.898;2023-08-08T00:50:03;13.40;99.90
53146;DHT22;39042;53.150;5.898;2023-08-08T00:52:29;13.40;99.90
53146;DHT22;39042;53.150;5.898;2023-08-08T00:54:55;13.30;99.90
53146;DHT22;39042;53.150;5.898;2023-08-08T00:57:21;13.30;99.90
53146;DHT22;39042;53.150;5.898;2023-08-08T00:59:47;13.20;99.90
53146;DHT22;39042;53.150;5.898;2023-08-08T01:02:14;13.20;99.90
53146;DHT22;39042;53.150;5.898;2023-08-08T01:04:40;13.10;99.90
53146;DHT22;39042;53.150;5.898;2023-08-08T01:09:57;13.00;99.90
53146;DHT22;39042;53.150;5.898;2023-08-08T01:12:27;13.00;99.90
53146;DHT22;39042;53.150;5.898;2023-08-08T01:14:54;12.90;99.90
53146;DHT22;39042;53.150;5.898;2023-08-08T01:17:20;12.90;99.90
53146;DHT22;39042;53.150;5.898;2023-08-08T01:19:46;12.90;99.90
53146;DHT22;39042;53.150;5.898;2023-08-08T01:22:22;12.90;99.90
53146;DHT22;39042;53.150;5.898;2023-08-08T01:24:49;12.90;99.90
53146;DHT22;39042;53.150;5.898;2023-08-08T01:27:16;12.90;99.90
53146;DHT22;39042;53.150;5.898;2023-08-08T01:29:43;12.80;99.90
53146;DHT22;39042;53.150;5.898;2023-08-08T01:32:09;12.80;99.90
53146;DHT22;39042;53.150;5.898;2023-08-08T01:34:36;12.80;99.90
53146;DHT22;39042;53.150;5.898;2023-08-08T01:37:26;12.70;99.90
53146;DHT22;39042;53.150;5.898;2023-08-08T01:39:57;12.70;99.90
53146;DHT22;39042;53.150;5.898;2023-08-08T01:42:25;12.70;99.90
53146;DHT22;39042;53.150;5.898;2023-08-08T01:44:53;12.70;99.90
53146;DHT22;39042;53.150;5.898;2023-08-08T01:47:20;12.70;99.90
53146;DHT22;39042;53.150;5.898;2023-08-08T01:49:45;12.70;99.90
53146;DHT22;39042;53.150;5.898;2023-08-08T01:52:11;12.70;99.90
53146;DHT22;39042;53.150;5.898;2023-08-08T01:54:37;12.70;99.90
53146;DHT22;39042;53.150;5.898;2023-08-08T01:57:04;12.70;99.90
53146;DHT22;39042;53.150;5.898;2023-08-08T01:59:30;12.80;99.90
53146;DHT22;39042;53.150;5.898;2023-08-08T02:01:56;12.70;99.90
53146;DHT22;39042;53.150;5.898;2023-08-08T02:04:21;12.80;99.90
53146;DHT22;39042;53.150;5.898;2023-08-08T02:06:47;12.80;99.90
53146;DHT22;39042;53.150;5.898;2023-08-08T02:09:13;12.80;99.90
53146;DHT22;39042;53.150;5.898;2023-08-08T02:11:41;12.90;99.90
53146;DHT22;39042;53.150;5.898;2023-08-08T02:14:07;12.90;99.90
53146;DHT22;39042;53.150;5.898;2023-08-08T02:16:33;13.00;99.90
53146;DHT22;39042;53.150;5.898;2023-08-08T02:19:00;13.00;99.90
53146;DHT22;39042;53.150;5.898;2023-08-08T02:21:26;13.00;99.90
53146;DHT22;39042;53.150;5.898;2023-08-08T02:23:52;13.10;99.90
53146;DHT22;39042;53.150;5.898;2023-08-08T02:26:18;13.20;99.90
53146;DHT22;39042;53.150;5.898;2023-08-08T02:28:44;13.20;99.90
53146;DHT22;39042;53.150;5.898;2023-08-08T02:31:10;13.30;99.90
53146;DHT22;39042;53.150;5.898;2023-08-08T02:33:35;13.30;99.90
53146;DHT22;39042;53.150;5.898;2023-08-08T02:36:01;13.40;99.90
53146;DHT22;39042;53.150;5.898;2023-08-08T02:38:27;13.50;99.90
53146;DHT22;39042;53.150;5.898;2023-08-08T02:40:53;13.60;99.90
53146;DHT22;39042;53.150;5.898;2023-08-08T02:43:19;13.60;99.90
53146;DHT22;39042;53.150;5.898;2023-08-08T02:45:46;13.60;99.90
53146;DHT22;39042;53.150;5.898;2023-08-08T02:48:12;13.60;99.90
53146;DHT22;39042;53.150;5.898;2023-08-08T02:50:38;13.60;99.90
53146;DHT22;39042;53.150;5.898;2023-08-08T02:53:04;13.60;99.90
53146;DHT22;39042;53.150;5.898;2023-08-08T02:55:36;13.60;99.90
53146;DHT22;39042;53.150;5.898;2023-08-08T02:58:02;13.60;99.90
53146;DHT22;39042;53.150;5.898;2023-08-08T03:00:27;13.60;99.90
53146;DHT22;39042;53.150;5.898;2023-08-08T03:02:54;13.60;99.90
53146;DHT22;39042;53.150;5.898;2023-08-08T03:05:20;13.60;99.90
53146;DHT22;39042;53.150;5.898;2023-08-08T03:07:47;13.60;99.90
53146;DHT22;39042;53.150;5.898;2023-08-08T03:10:14;13.60;99.90
53146;DHT22;39042;53.150;5.898;2023-08-08T03:12:41;13.60;99.90
53146;DHT22;39042;53.150;5.898;2023-08-08T03:15:08;13.60;99.90
53146;DHT22;39042;53.150;5.898;2023-08-08T03:17:34;13.60;99.90
53146;DHT22;39042;53.150;5.898;2023-08-08T03:20:01;13.50;99.90
53146;DHT22;39042;53.150;5.898;2023-08-08T03:22:28;13.50;99.90
53146;DHT22;39042;53.150;5.898;2023-08-08T03:24:54;13.40;99.90
53146;DHT22;39042;53.150;5.898;2023-08-08T03:27:20;13.40;99.90
53146;DHT22;39042;53.150;5.898;2023-08-08T03:29:51;13.30;99.90
53146;DHT22;39042;53.150;5.898;2023-08-08T03:32:17;13.30;99.90
53146;DHT22;39042;53.150;5.898;2023-08-08T03:34:43;13.30;99.90
53146;DHT22;39042;53.150;5.898;2023-08-08T03:37:11;13.30;99.90
53146;DHT22;39042;53.150;5.898;2023-08-08T03:39:37;13.30;99.90
53146;DHT22;39042;53.150;5.898;2023-08-08T03:42:03;13.30;99.90
53146;DHT22;39042;53.150;5.898;2023-08-08T03:44:29;13.30;99.90
53146;DHT22;39042;53.150;5.898;2023-08-08T03:46:55;13.30;99.90
53146;DHT22;39042;53.150;5.898;2023-08-08T03:49:21;13.30;99.90
53146;DHT22;39042;53.150;5.898;2023-08-08T03:51:47;13.30;99.90
53146;DHT22;39042;53.150;5.898;2023-08-08T03:54:14;13.30;99.90
53146;DHT22;39042;53.150;5.898;2023-08-08T03:56:41;13.20;99.90
53146;DHT22;39042;53.150;5.898;2023-08-08T03:59:08;13.20;99.90
53146;DHT22;39042;53.150;5.898;2023-08-08T04:01:34;13.20;99.90
53146;DHT22;39042;53.150;5.898;2023-08-08T04:04:00;13.20;99.90
53146;DHT22;39042;53.150;5.898;2023-08-08T04:06:26;13.30;99.90
53146;DHT22;39042;53.150;5.898;2023-08-08T04:08:52;13.30;99.90
53146;DHT22;39042;53.150;5.898;2023-08-08T04:11:18;13.30;99.90
53146;DHT22;39042;53.150;5.898;2023-08-08T04:13:44;13.30;99.90
53146;DHT22;39042;53.150;5.898;2023-08-08T04:16:10;13.30;99.90
53146;DHT22;39042;53.150;5.898;2023-08-08T04:18:36;13.30;99.90
53146;DHT22;39042;53.150;5.898;2023-08-08T04:21:01;13.30;99.90
53146;DHT22;39042;53.150;5.898;2023-08-08T04:23:27;13.30;99.90
53146;DHT22;39042;53.150;5.898;2023-08-08T04:25:53;13.40;99.90
53146;DHT22;39042;53.150;5.898;2023-08-08T04:28:19;13.40;99.90
53146;DHT22;39042;53.150;5.898;2023-08-08T04:30:45;13.40;99.90
53146;DHT22;39042;53.150;5.898;2023-08-08T04:33:11;13.40;99.90
53146;DHT22;39042;53.150;5.898;2023-08-08T04:35:36;13.50;99.90
53146;DHT22;39042;53.150;5.898;2023-08-08T04:38:03;13.50;99.90
53146;DHT22;39042;53.150;5.898;2023-08-08T04:40:29;13.50;99.90
53146;DHT22;39042;53.150;5.898;2023-08-08T04:42:55;13.50;99.90
53146;DHT22;39042;53.150;5.898;2023-08-08T04:45:21;13.40;99.90
53146;DHT22;39042;53.150;5.898;2023-08-08T04:47:47;13.40;99.90
53146;DHT22;39042;53.150;5.898;2023-08-08T04:50:13;13.30;99.90
53146;DHT22;39042;53.150;5.898;2023-08-08T04:52:38;13.30;99.90
53146;DHT22;39042;53.150;5.898;2023-08-08T04:55:05;13.30;99.90
53146;DHT22;39042;53.150;5.898;2023-08-08T04:57:31;13.30;99.90
53146;DHT22;39042;53.150;5.898;2023-08-08T04:59:57;13.30;99.90
53146;DHT22;39042;53.150;5.898;2023-08-08T05:02:23;13.30;99.90
53146;DHT22;39042;53.150;5.898;2023-08-08T05:04:48;13.40;99.90
53146;DHT22;39042;53.150;5.898;2023-08-08T05:07:15;13.50;99.90
53146;DHT22;39042;53.150;5.898;2023-08-08T05:09:41;13.60;99.90
53146;DHT22;39042;53.150;5.898;2023-08-08T05:12:07;13.70;99.90
53146;DHT22;39042;53.150;5.898;2023-08-08T05:14:33;13.80;99.90
53146;DHT22;39042;53.150;5.898;2023-08-08T05:16:59;13.90;99.90
53146;DHT22;39042;53.150;5.898;2023-08-08T05:19:25;14.00;99.90
53146;DHT22;39042;53.150;5.898;2023-08-08T05:21:51;14.10;99.90
53146;DHT22;39042;53.150;5.898;2023-08-08T05:24:17;14.30;99.90
53146;DHT22;39042;53.150;5.898;2023-08-08T05:26:43;14.30;99.90
53146;DHT22;39042;53.150;5.898;2023-08-08T05:29:09;14.50;99.90
53146;DHT22;39042;53.150;5.898;2023-08-08T05:31:34;14.50;99.90
53146;DHT22;39042;53.150;5.898;2023-08-08T05:34:00;14.60;99.90
53146;DHT22;39042;53.150;5.898;2023-08-08T05:36:26;14.70;99.90
53146;DHT22;39042;53.150;5.898;2023-08-08T05:38:52;14.80;99.90
53146;DHT22;39042;53.150;5.898;2023-08-08T05:41:18;14.90;99.90
53146;DHT22;39042;53.150;5.898;2023-08-08T05:43:44;14.90;99.90
53146;DHT22;39042;53.150;5.898;2023-08-08T05:46:10;14.90;99.90
53146;DHT22;39042;53.150;5.898;2023-08-08T05:48:36;15.00;99.90
53146;DHT22;39042;53.150;5.898;2023-08-08T05:51:01;15.00;99.90
53146;DHT22;39042;53.150;5.898;2023-08-08T05:53:33;15.10;99.90
53146;DHT22;39042;53.150;5.898;2023-08-08T05:55:59;15.20;99.90
53146;DHT22;39042;53.150;5.898;2023-08-08T05:58:25;15.20;99.90
53146;DHT22;39042;53.150;5.898;2023-08-08T06:00:52;15.30;99.90
53146;DHT22;39042;53.150;5.898;2023-08-08T06:03:18;15.30;99.90
53146;DHT22;39042;53.150;5.898;2023-08-08T06:05:43;15.40;99.90
53146;DHT22;39042;53.150;5.898;2023-08-08T06:08:10;15.50;99.90
53146;DHT22;39042;53.150;5.898;2023-08-08T06:10:37;15.50;99.90
53146;DHT22;39042;53.150;5.898;2023-08-08T06:13:03;15.50;99.90
53146;DHT22;39042;53.150;5.898;2023-08-08T06:15:29;15.60;99.90
53146;DHT22;39042;53.150;5.898;2023-08-08T06:17:55;15.60;99.90
53146;DHT22;39042;53.150;5.898;2023-08-08T06:20:20;15.70;99.90
53146;DHT22;39042;53.150;5.898;2023-08-08T06:22:47;15.70;99.90
53146;DHT22;39042;53.150;5.898;2023-08-08T06:25:12;15.80;99.90
53146;DHT22;39042;53.150;5.898;2023-08-08T06:27:38;15.80;99.90
53146;DHT22;39042;53.150;5.898;2023-08-08T06:30:05;15.90;99.90
53146;DHT22;39042;53.150;5.898;2023-08-08T06:32:31;16.00;99.90
53146;DHT22;39042;53.150;5.898;2023-08-08T06:34:56;16.00;99.90
53146;DHT22;39042;53.150;5.898;2023-08-08T06:37:22;16.10;99.90
53146;DHT22;39042;53.150;5.898;2023-08-08T06:39:48;16.20;99.90
53146;DHT22;39042;53.150;5.898;2023-08-08T06:42:14;16.30;99.90
53146;DHT22;39042;53.150;5.898;2023-08-08T06:44:51;16.50;99.90
53146;DHT22;39042;53.150;5.898;2023-08-08T06:47:17;16.70;99.90
53146;DHT22;39042;53.150;5.898;2023-08-08T06:49:43;16.90;99.90
53146;DHT22;39042;53.150;5.898;2023-08-08T06:52:10;16.90;99.90
53146;DHT22;39042;53.150;5.898;2023-08-08T06:54:36;17.00;99.90
53146;DHT22;39042;53.150;5.898;2023-08-08T06:57:01;17.00;99.90
53146;DHT22;39042;53.150;5.898;2023-08-08T06:59:28;17.00;99.90
53146;DHT22;39042;53.150;5.898;2023-08-08T07:01:54;17.00;99.90
53146;DHT22;39042;53.150;5.898;2023-08-08T07:04:19;17.10;99.90
53146;DHT22;39042;53.150;5.898;2023-08-08T07:06:48;17.20;99.90
53146;DHT22;39042;53.150;5.898;2023-08-08T07:09:13;17.20;99.90
53146;DHT22;39042;53.150;5.898;2023-08-08T07:11:40;17.20;99.90
53146;DHT22;39042;53.150;5.898;2023-08-08T07:14:06;17.20;99.90
53146;DHT22;39042;53.150;5.898;2023-08-08T07:16:32;17.30;99.90
53146;DHT22;39042;53.150;5.898;2023-08-08T07:18:58;17.30;99.90
53146;DHT22;39042;53.150;5.898;2023-08-08T07:21:24;17.40;99.90
53146;DHT22;39042;53.150;5.898;2023-08-08T07:23:49;17.40;99.90
53146;DHT22;39042;53.150;5.898;2023-08-08T07:26:15;17.50;99.90
53146;DHT22;39042;53.150;5.898;2023-08-08T07:28:41;17.60;99.90
53146;DHT22;39042;53.150;5.898;2023-08-08T07:31:07;17.60;99.90
53146;DHT22;39042;53.150;5.898;2023-08-08T07:33:33;17.70;99.90
53146;DHT22;39042;53.150;5.898;2023-08-08T07:35:58;17.70;99.90
53146;DHT22;39042;53.150;5.898;2023-08-08T07:38:24;17.70;99.90
53146;DHT22;39042;53.150;5.898;2023-08-08T07:40:50;17.70;99.90
53146;DHT22;39042;53.150;5.898;2023-08-08T07:43:16;17.80;99.90
53146;DHT22;39042;53.150;5.898;2023-08-08T07:45:42;17.80;99.90
53146;DHT22;39042;53.150;5.898;2023-08-08T07:48:08;17.80;99.90
53146;DHT22;39042;53.150;5.898;2023-08-08T07:50:34;17.80;99.90
53146;DHT22;39042;53.150;5.898;2023-08-08T07:53:00;17.80;99.90
53146;DHT22;39042;53.150;5.898;2023-08-08T07:55:25;17.80;99.90
53146;DHT22;39042;53.150;5.898;2023-08-08T07:57:51;17.80;99.90
53146;DHT22;39042;53.150;5.898;2023-08-08T08:00:18;17.70;99.90
53146;DHT22;39042;53.150;5.898;2023-08-08T08:02:44;17.70;99.90
53146;DHT22;39042;53.150;5.898;2023-08-08T08:05:11;17.70;99.90
53146;DHT22;39042;53.150;5.898;2023-08-08T08:07:37;17.70;99.90
53146;DHT22;39042;53.150;5.898;2023-08-08T08:10:04;17.50;99.90
53146;DHT22;39042;53.150;5.898;2023-08-08T08:12:31;17.40;99.90
53146;DHT22;39042;53.150;5.898;2023-08-08T08:14:58;17.20;99.90
53146;DHT22;39042;53.150;5.898;2023-08-08T08:17:23;17.20;99.90
53146;DHT22;39042;53.150;5.898;2023-08-08T08:19:50;17.30;99.90
53146;DHT22;39042;53.150;5.898;2023-08-08T08:22:17;17.30;99.90
53146;DHT22;39042;53.150;5.898;2023-08-08T08:24:42;17.40;99.90
53146;DHT22;39042;53.150;5.898;2023-08-08T08:27:08;17.40;99.90
53146;DHT22;39042;53.150;5.898;2023-08-08T08:29:34;17.50;99.90
53146;DHT22;39042;53.150;5.898;2023-08-08T08:32:00;17.50;99.90
53146;DHT22;39042;53.150;5.898;2023-08-08T08:34:26;17.60;99.90
53146;DHT22;39042;53.150;5.898;2023-08-08T08:36:52;17.60;99.90
53146;DHT22;39042;53.150;5.898;2023-08-08T08:39:17;17.60;99.90
53146;DHT22;39042;53.150;5.898;2023-08-08T08:41:47;17.70;99.90
53146;DHT22;39042;53.150;5.898;2023-08-08T08:44:15;17.70;99.90
53146;DHT22;39042;53.150;5.898;2023-08-08T08:46:42;17.80;99.90
53146;DHT22;39042;53.150;5.898;2023-08-08T08:49:08;17.80;99.90
53146;DHT22;39042;53.150;5.898;2023-08-08T08:51:38;17.70;99.90
53146;DHT22;39042;53.150;5.898;2023-08-08T08:54:05;17.70;99.90
53146;DHT22;39042;53.150;5.898;2023-08-08T08:56:31;17.70;99.90
53146;DHT22;39042;53.150;5.898;2023-08-08T08:58:59;17.60;99.90
53146;DHT22;39042;53.150;5.898;2023-08-08T09:01:24;17.60;99.90
53146;DHT22;39042;53.150;5.898;2023-08-08T09:03:50;17.60;99.90
53146;DHT22;39042;53.150;5.898;2023-08-08T09:06:17;17.80;99.90
53146;DHT22;39042;53.150;5.898;2023-08-08T09:08:44;17.90;99.90
53146;DHT22;39042;53.150;5.898;2023-08-08T09:11:12;17.70;99.90
53146;DHT22;39042;53.150;5.898;2023-08-08T09:13:39;17.60;99.90
53146;DHT22;39042;53.150;5.898;2023-08-08T09:16:09;17.50;99.90
53146;DHT22;39042;53.150;5.898;2023-08-08T09:18:35;17.40;99.90
53146;DHT22;39042;53.150;5.898;2023-08-08T09:21:05;17.40;99.90
53146;DHT22;39042;53.150;5.898;2023-08-08T09:23:31;17.50;99.90
53146;DHT22;39042;53.150;5.898;2023-08-08T09:25:57;17.60;99.90
53146;DHT22;39042;53.150;5.898;2023-08-08T09:28:22;17.70;99.90
53146;DHT22;39042;53.150;5.898;2023-08-08T09:30:48;17.70;99.90
53146;DHT22;39042;53.150;5.898;2023-08-08T09:33:14;17.90;99.90
53146;DHT22;39042;53.150;5.898;2023-08-08T09:35:40;18.00;99.90
53146;DHT22;39042;53.150;5.898;2023-08-08T09:38:07;18.10;99.90
53146;DHT22;39042;53.150;5.898;2023-08-08T09:40:33;18.10;99.90
53146;DHT22;39042;53.150;5.898;2023-08-08T09:42:59;18.00;99.90
53146;DHT22;39042;53.150;5.898;2023-08-08T09:45:25;17.80;99.90
53146;DHT22;39042;53.150;5.898;2023-08-08T09:47:51;17.90;99.90
53146;DHT22;39042;53.150;5.898;2023-08-08T09:50:19;18.00;99.90
53146;DHT22;39042;53.150;5.898;2023-08-08T09:52:46;18.10;99.90
53146;DHT22;39042;53.150;5.898;2023-08-08T09:55:12;18.20;99.90
53146;DHT22;39042;53.150;5.898;2023-08-08T09:57:41;18.20;99.90
53146;DHT22;39042;53.150;5.898;2023-08-08T10:00:08;18.20;99.90
53146;DHT22;39042;53.150;5.898;2023-08-08T10:02:45;18.20;99.90
53146;DHT22;39042;53.150;5.898;2023-08-08T10:05:12;18.20;99.90
53146;DHT22;39042;53.150;5.898;2023-08-08T10:07:40;18.10;99.90
53146;DHT22;39042;53.150;5.898;2023-08-08T10:10:08;18.10;99.90
53146;DHT22;39042;53.150;5.898;2023-08-08T10:12:37;18.10;99.90
53146;DHT22;39042;53.150;5.898;2023-08-08T10:15:07;18.00;99.90
53146;DHT22;39042;53.150;5.898;2023-08-08T10:17:40;17.90;99.90
53146;DHT22;39042;53.150;5.898;2023-08-08T10:20:08;17.80;99.90
53146;DHT22;39042;53.150;5.898;2023-08-08T10:22:42;17.90;99.90
53146;DHT22;39042;53.150;5.898;2023-08-08T10:25:08;17.90;99.90
53146;DHT22;39042;53.150;5.898;2023-08-08T10:27:36;18.10;99.90
53146;DHT22;39042;53.150;5.898;2023-08-08T10:30:06;18.20;99.90
53146;DHT22;39042;53.150;5.898;2023-08-08T10:32:45;18.40;99.90
53146;DHT22;39042;53.150;5.898;2023-08-08T10:35:14;18.60;99.90
53146;DHT22;39042;53.150;5.898;2023-08-08T10:37:40;18.60;99.90
53146;DHT22;39042;53.150;5.898;2023-08-08T10:40:06;18.60;99.90
53146;DHT22;39042;53.150;5.898;2023-08-08T10:42:41;18.50;99.90
53146;DHT22;39042;53.150;5.898;2023-08-08T10:45:11;18.40;99.90
53146;DHT22;39042;53.150;5.898;2023-08-08T10:47:39;18.40;99.90
53146;DHT22;39042;53.150;5.898;2023-08-08T10:50:13;18.30;99.90
53146;DHT22;39042;53.150;5.898;2023-08-08T10:55:34;18.40;99.90
53146;DHT22;39042;53.150;5.898;2023-08-08T10:58:08;18.30;99.90
53146;DHT22;39042;53.150;5.898;2023-08-08T11:00:35;18.20;99.90
53146;DHT22;39042;53.150;5.898;2023-08-08T11:03:03;18.40;99.90
53146;DHT22;39042;53.150;5.898;2023-08-08T11:05:31;18.40;99.90
53146;DHT22;39042;53.150;5.898;2023-08-08T11:07:59;18.50;99.90
53146;DHT22;39042;53.150;5.898;2023-08-08T11:10:25;18.50;99.90
53146;DHT22;39042;53.150;5.898;2023-08-08T11:12:57;18.50;99.90
53146;DHT22;39042;53.150;5.898;2023-08-08T11:15:24;18.40;99.90
53146;DHT22;39042;53.150;5.898;2023-08-08T11:17:50;18.50;99.90
53146;DHT22;39042;53.150;5.898;2023-08-08T11:20:18;18.50;99.90
53146;DHT22;39042;53.150;5.898;2023-08-08T11:22:44;18.50;99.90
53146;DHT22;39042;53.150;5.898;2023-08-08T11:25:10;18.60;99.90
53146;DHT22;39042;53.150;5.898;2023-08-08T11:27:35;18.70;99.90
53146;DHT22;39042;53.150;5.898;2023-08-08T11:30:04;18.80;99.90
53146;DHT22;39042;53.150;5.898;2023-08-08T11:32:30;18.70;99.90
53146;DHT22;39042;53.150;5.898;2023-08-08T11:34:55;18.70;99.90
53146;DHT22;39042;53.150;5.898;2023-08-08T11:37:22;18.70;99.90
53146;DHT22;39042;53.150;5.898;2023-08-08T11:39:49;18.80;99.90
53146;DHT22;39042;53.150;5.898;2023-08-08T11:42:15;18.80;99.90
53146;DHT22;39042;53.150;5.898;2023-08-08T11:44:41;18.80;99.90
53146;DHT22;39042;53.150;5.898;2023-08-08T11:47:07;18.90;99.90
53146;DHT22;39042;53.150;5.898;2023-08-08T11:49:42;19.00;99.90
53146;DHT22;39042;53.150;5.898;2023-08-08T11:52:08;19.10;99.90
53146;DHT22;39042;53.150;5.898;2023-08-08T11:54:37;19.10;99.90
53146;DHT22;39042;53.150;5.898;2023-08-08T11:57:03;19.20;99.90
53146;DHT22;39042;53.150;5.898;2023-08-08T11:59:31;19.20;99.90
53146;DHT22;39042;53.150;5.898;2023-08-08T12:01:57;19.20;99.90
53146;DHT22;39042;53.150;5.898;2023-08-08T12:04:23;19.10;99.90
53146;DHT22;39042;53.150;5.898;2023-08-08T12:06:49;18.90;99.90
53146;DHT22;39042;53.150;5.898;2023-08-08T12:09:15;18.80;99.90
53146;DHT22;39042;53.150;5.898;2023-08-08T12:11:41;18.80;99.90
53146;DHT22;39042;53.150;5.898;2023-08-08T12:14:08;18.70;99.90
53146;DHT22;39042;53.150;5.898;2023-08-08T12:16:39;18.60;99.90
53146;DHT22;39042;53.150;5.898;2023-08-08T12:19:07;18.50;99.90
53146;DHT22;39042;53.150;5.898;2023-08-08T12:21:35;18.40;99.90
53146;DHT22;39042;53.150;5.898;2023-08-08T12:24:01;18.40;99.90
53146;DHT22;39042;53.150;5.898;2023-08-08T12:26:27;18.50;99.90
53146;DHT22;39042;53.150;5.898;2023-08-08T12:28:53;18.70;99.90
53146;DHT22;39042;53.150;5.898;2023-08-08T12:31:20;18.70;99.90
53146;DHT22;39042;53.150;5.898;2023-08-08T12:33:46;18.80;99.90
53146;DHT22;39042;53.150;5.898;2023-08-08T12:36:12;18.90;99.90
53146;DHT22;39042;53.150;5.898;2023-08-08T12:38:38;18.90;99.90
53146;DHT22;39042;53.150;5.898;2023-08-08T12:41:04;18.90;99.90
53146;DHT22;39042;53.150;5.898;2023-08-08T12:43:30;18.90;99.90
53146;DHT22;39042;53.150;5.898;2023-08-08T12:45:55;18.90;99.90
53146;DHT22;39042;53.150;5.898;2023-08-08T12:48:21;19.00;99.90
53146;DHT22;39042;53.150;5.898;2023-08-08T12:50:47;19.00;99.90
53146;DHT22;39042;53.150;5.898;2023-08-08T12:53:13;18.90;99.90
53146;DHT22;39042;53.150;5.898;2023-08-08T12:55:39;18.90;99.90
53146;DHT22;39042;53.150;5.898;2023-08-08T12:58:05;18.90;99.90
53146;DHT22;39042;53.150;5.898;2023-08-08T13:00:31;19.10;99.90
53146;DHT22;39042;53.150;5.898;2023-08-08T13:02:57;19.30;99.90
53146;DHT22;39042;53.150;5.898;2023-08-08T13:05:23;19.50;99.90
53146;DHT22;39042;53.150;5.898;2023-08-08T13:07:49;19.50;99.90
53146;DHT22;39042;53.150;5.898;2023-08-08T13:10:15;19.40;99.90
53146;DHT22;39042;53.150;5.898;2023-08-08T13:12:41;19.30;99.90
53146;DHT22;39042;53.150;5.898;2023-08-08T13:15:07;19.30;99.90
53146;DHT22;39042;53.150;5.898;2023-08-08T13:17:33;19.20;99.90
53146;DHT22;39042;53.150;5.898;2023-08-08T13:20:00;19.10;99.90
53146;DHT22;39042;53.150;5.898;2023-08-08T13:22:26;19.00;99.90
53146;DHT22;39042;53.150;5.898;2023-08-08T13:24:52;18.90;99.90
53146;DHT22;39042;53.150;5.898;2023-08-08T13:27:17;18.90;99.90
53146;DHT22;39042;53.150;5.898;2023-08-08T13:29:43;18.90;99.90
53146;DHT22;39042;53.150;5.898;2023-08-08T13:32:09;18.70;99.90
53146;DHT22;39042;53.150;5.898;2023-08-08T13:34:35;18.60;99.90
53146;DHT22;39042;53.150;5.898;2023-08-08T13:37:01;18.60;99.90
53146;DHT22;39042;53.150;5.898;2023-08-08T13:39:27;18.40;99.90
53146;DHT22;39042;53.150;5.898;2023-08-08T13:41:53;18.40;99.90
53146;DHT22;39042;53.150;5.898;2023-08-08T13:44:19;18.50;99.90
53146;DHT22;39042;53.150;5.898;2023-08-08T13:46:45;18.50;99.90
53146;DHT22;39042;53.150;5.898;2023-08-08T13:49:10;18.60;99.90
53146;DHT22;39042;53.150;5.898;2023-08-08T13:51:36;18.60;99.90
53146;DHT22;39042;53.150;5.898;2023-08-08T13:54:02;18.50;99.90
53146;DHT22;39042;53.150;5.898;2023-08-08T13:56:28;18.40;99.90
53146;DHT22;39042;53.150;5.898;2023-08-08T13:58:54;18.30;99.90
53146;DHT22;39042;53.150;5.898;2023-08-08T14:01:20;18.30;99.90
53146;DHT22;39042;53.150;5.898;2023-08-08T14:03:46;18.30;99.90
53146;DHT22;39042;53.150;5.898;2023-08-08T14:06:12;18.40;99.90
53146;DHT22;39042;53.150;5.898;2023-08-08T14:08:37;18.40;99.90
53146;DHT22;39042;53.150;5.898;2023-08-08T14:11:03;18.40;99.90
53146;DHT22;39042;53.150;5.898;2023-08-08T14:13:29;18.30;99.90
53146;DHT22;39042;53.150;5.898;2023-08-08T14:15:55;18.30;99.90
53146;DHT22;39042;53.150;5.898;2023-08-08T14:18:21;18.20;99.90
53146;DHT22;39042;53.150;5.898;2023-08-08T14:20:46;18.30;99.90
53146;DHT22;39042;53.150;5.898;2023-08-08T14:23:12;18.40;99.90
53146;DHT22;39042;53.150;5.898;2023-08-08T14:25:38;18.50;99.90
53146;DHT22;39042;53.150;5.898;2023-08-08T14:28:04;18.50;99.90
53146;DHT22;39042;53.150;5.898;2023-08-08T14:30:30;18.70;99.90
53146;DHT22;39042;53.150;5.898;2023-08-08T14:32:56;18.80;99.90
53146;DHT22;39042;53.150;5.898;2023-08-08T14:35:22;18.80;99.90
53146;DHT22;39042;53.150;5.898;2023-08-08T14:37:48;18.70;99.90
53146;DHT22;39042;53.150;5.898;2023-08-08T14:40:14;18.60;99.90
53146;DHT22;39042;53.150;5.898;2023-08-08T14:42:40;18.40;99.90
53146;DHT22;39042;53.150;5.898;2023-08-08T14:45:06;18.40;99.90
53146;DHT22;39042;53.150;5.898;2023-08-08T14:47:32;18.40;99.90
53146;DHT22;39042;53.150;5.898;2023-08-08T14:49:58;18.40;99.90
53146;DHT22;39042;53.150;5.898;2023-08-08T14:52:23;18.40;99.90
53146;DHT22;39042;53.150;5.898;2023-08-08T14:54:51;18.30;99.90
53146;DHT22;39042;53.150;5.898;2023-08-08T14:57:17;18.30;99.90
53146;DHT22;39042;53.150;5.898;2023-08-08T14:59:43;18.40;99.90
53146;DHT22;39042;53.150;5.898;2023-08-08T15:02:09;18.40;99.90
53146;DHT22;39042;53.150;5.898;2023-08-08T15:04:34;18.50;99.90
53146;DHT22;39042;53.150;5.898;2023-08-08T15:07:00;18.60;99.90
53146;DHT22;39042;53.150;5.898;2023-08-08T15:09:27;18.60;99.90
53146;DHT22;39042;53.150;5.898;2023-08-08T15:11:53;18.50;99.90
53146;DHT22;39042;53.150;5.898;2023-08-08T15:14:19;18.30;99.90
53146;DHT22;39042;53.150;5.898;2023-08-08T15:16:51;18.20;99.90
53146;DHT22;39042;53.150;5.898;2023-08-08T15:19:17;18.20;99.90
53146;DHT22;39042;53.150;5.898;2023-08-08T15:21:43;18.20;99.90
53146;DHT22;39042;53.150;5.898;2023-08-08T15:24:09;18.10;99.90
53146;DHT22;39042;53.150;5.898;2023-08-08T15:26:35;18.20;99.90
53146;DHT22;39042;53.150;5.898;2023-08-08T15:29:01;18.30;99.90
53146;DHT22;39042;53.150;5.898;2023-08-08T15:31:27;18.20;99.90